createdAt,value
2018-01-18T00:01:15.262Z,99687.84
2018-01-18T00:03:42.912Z,99688.64
2018-01-18T00:06:10.480Z,99679.73
2018-01-18T00:08:38.133Z,99669.27
2018-01-18T00:11:05.673Z,99665.44
2018-01-18T00:13:33.245Z,99667.54
2018-01-18T00:16:00.797Z,99658.39
2018-01-18T00:18:28.368Z,99647.78
2018-01-18T00:20:55.955Z,99639.52
2018-01-18T00:23:23.533Z,99640.16
2018-01-18T00:25:51.068Z,99635.73
2018-01-18T00:28:18.603Z,99634.69
2018-01-18T00:30:46.117Z,99625.00
2018-01-18T00:33:13.672Z,99623.69
2018-01-18T00:35:41.246Z,99622.25
2018-01-18T00:38:08.756Z,99614.52
2018-01-18T00:40:36.320Z,99609.92
2018-01-18T00:43:03.878Z,99599.05
2018-01-18T00:45:31.383Z,99603.66
2018-01-18T00:47:59.260Z,99587.41
2018-01-18T00:50:26.771Z,99583.85
2018-01-18T00:52:54.281Z,99582.42
2018-01-18T00:55:21.819Z,99565.04
2018-01-18T00:57:49.332Z,99560.31
2018-01-18T01:00:16.897Z,99551.12
2018-01-18T01:02:44.402Z,99541.17
2018-01-18T01:05:12.855Z,99530.45
2018-01-18T01:07:40.378Z,99526.66
2018-01-18T01:10:07.968Z,99521.03
2018-01-18T01:12:35.562Z,99508.08
2018-01-18T01:15:03.076Z,99511.47
2018-01-18T01:17:30.673Z,99506.00
2018-01-18T01:19:58.281Z,99487.94
2018-01-18T01:22:25.829Z,99489.89
2018-01-18T01:24:53.397Z,99489.77
2018-01-18T01:27:21.003Z,99486.12
2018-01-18T01:29:48.900Z,99482.50
2018-01-18T01:32:16.413Z,99484.52
2018-01-18T01:34:43.984Z,99479.94
2018-01-18T01:37:11.544Z,99466.83
2018-01-18T01:39:39.087Z,99462.27
2018-01-18T01:42:06.680Z,99447.48
2018-01-18T01:44:34.220Z,99450.21
2018-01-18T01:47:01.759Z,99440.23
2018-01-18T01:49:29.329Z,99431.84
2018-01-18T01:51:56.884Z,99423.00
2018-01-18T01:54:24.741Z,99418.91
2018-01-18T01:56:52.277Z,99411.35
2018-01-18T01:59:19.823Z,99405.95
2018-01-18T02:01:47.397Z,99396.83
2018-01-18T02:04:14.965Z,99388.84
2018-01-18T02:06:42.529Z,99381.22
2018-01-18T02:09:10.045Z,99371.39
2018-01-18T02:11:37.626Z,99367.20
2018-01-18T02:14:05.174Z,99357.81
2018-01-18T02:16:32.718Z,99350.47
2018-01-18T02:19:00.282Z,99341.86
2018-01-18T02:21:27.868Z,99331.44
2018-01-18T02:23:55.413Z,99323.03
2018-01-18T02:26:22.922Z,99326.25
2018-01-18T02:28:50.476Z,99329.13
2018-01-18T02:31:18.021Z,99317.95
2018-01-18T02:33:45.611Z,99321.11
2018-01-18T02:36:13.120Z,99308.27
2018-01-18T02:38:40.703Z,99292.83
2018-01-18T02:41:08.283Z,99280.88
2018-01-18T02:43:35.853Z,99277.91
2018-01-18T02:46:03.489Z,99274.26
2018-01-18T02:48:31.045Z,99266.65
2018-01-18T02:50:58.582Z,99276.34
2018-01-18T02:53:26.139Z,99264.88
2018-01-18T02:55:53.684Z,99247.72
2018-01-18T02:58:21.224Z,99234.63
2018-01-18T03:00:48.789Z,99227.91
2018-01-18T03:03:16.328Z,99207.21
2018-01-18T03:05:43.996Z,99196.42
2018-01-18T03:08:11.704Z,99188.88
2018-01-18T03:10:39.253Z,99177.91
2018-01-18T03:13:06.759Z,99170.05
2018-01-18T03:15:34.315Z,99161.88
2018-01-18T03:18:01.856Z,99151.20
2018-01-18T03:20:29.376Z,99137.23
2018-01-18T03:22:57.297Z,99130.98
2018-01-18T03:25:24.845Z,99117.45
2018-01-18T03:27:52.347Z,99101.45
2018-01-18T03:30:19.933Z,99087.88
2018-01-18T03:32:47.460Z,99080.51
2018-01-18T03:35:14.992Z,99067.34
2018-01-18T03:37:42.524Z,99050.06
2018-01-18T03:40:10.076Z,99036.01
2018-01-18T03:42:37.588Z,99015.91
2018-01-18T03:45:05.160Z,99010.89
2018-01-18T03:47:32.688Z,98998.52
2018-01-18T03:50:00.204Z,98981.41
2018-01-18T03:52:27.773Z,98959.46
2018-01-18T03:54:55.332Z,98954.79
2018-01-18T03:57:22.863Z,98927.20
2018-01-18T03:59:50.384Z,98926.34
2018-01-18T04:02:17.952Z,98897.75
2018-01-18T04:04:45.506Z,98868.28
2018-01-18T04:07:13.035Z,98845.03
2018-01-18T04:09:40.627Z,98826.78
2018-01-18T04:12:08.168Z,98796.98
2018-01-18T04:14:35.704Z,98774.55
2018-01-18T04:17:03.284Z,98762.48
2018-01-18T04:19:30.802Z,98752.31
2018-01-18T04:21:58.346Z,98747.55
2018-01-18T04:24:25.860Z,98732.87
2018-01-18T04:26:53.715Z,98709.76
2018-01-18T04:29:21.267Z,98690.21
2018-01-18T04:31:48.820Z,98674.05
2018-01-18T04:34:16.396Z,98655.98
2018-01-18T04:36:43.952Z,98639.05
2018-01-18T04:39:11.524Z,98611.73
2018-01-18T04:41:39.064Z,98597.85
2018-01-18T04:44:06.984Z,98583.77
2018-01-18T04:46:34.529Z,98560.03
2018-01-18T04:49:02.044Z,98541.20
2018-01-18T04:51:29.609Z,98535.77
2018-01-18T04:53:57.134Z,98514.66
2018-01-18T04:56:24.713Z,98485.62
2018-01-18T04:58:52.264Z,98473.84
2018-01-18T05:01:19.801Z,98466.30
2018-01-18T05:03:47.360Z,98447.98
2018-01-18T05:06:14.934Z,98430.81
2018-01-18T05:08:42.508Z,98420.35
2018-01-18T05:11:10.054Z,98408.56
2018-01-18T05:13:37.593Z,98392.45
2018-01-18T05:16:05.100Z,98377.77
2018-01-18T05:18:32.644Z,98358.77
2018-01-18T05:21:00.204Z,98350.65
2018-01-18T05:23:27.740Z,98324.69
2018-01-18T05:25:55.268Z,98300.95
2018-01-18T05:28:22.950Z,98300.82
2018-01-18T05:30:50.499Z,98291.66
2018-01-18T05:33:18.075Z,98271.32
2018-01-18T05:35:45.583Z,98248.45
2018-01-18T05:38:13.101Z,98238.30
2018-01-18T05:40:40.669Z,98207.27
2018-01-18T05:43:08.183Z,98191.69
2018-01-18T05:45:35.757Z,98195.66
2018-01-18T05:48:03.281Z,98169.66
2018-01-18T05:50:30.844Z,98137.24
2018-01-18T05:52:58.477Z,98144.70
2018-01-18T05:55:26.056Z,98123.12
2018-01-18T05:57:53.572Z,98080.42
2018-01-18T06:00:21.088Z,98101.25
2018-01-18T06:02:48.653Z,98100.91
2018-01-18T06:05:16.222Z,98075.69
2018-01-18T06:07:43.812Z,98066.78
2018-01-18T06:10:11.408Z,98052.59
2018-01-18T06:12:38.916Z,98030.51
2018-01-18T06:15:06.583Z,98006.81
2018-01-18T06:17:34.156Z,97995.98
2018-01-18T06:20:01.710Z,98000.91
2018-01-18T06:22:29.608Z,97980.01
2018-01-18T06:24:57.234Z,97957.08
2018-01-18T06:27:24.774Z,97969.03
2018-01-18T06:29:52.369Z,97965.90
2018-01-18T06:32:19.908Z,97946.72
2018-01-18T06:34:47.533Z,97931.67
2018-01-18T06:37:15.072Z,97909.41
2018-01-18T06:39:42.612Z,97886.52
2018-01-18T06:42:10.187Z,97868.28
2018-01-18T06:44:37.714Z,97839.38
2018-01-18T06:47:05.272Z,97842.66
2018-01-18T06:49:32.779Z,97836.23
2018-01-18T06:52:00.298Z,97825.61
2018-01-18T06:54:27.823Z,97827.81
2018-01-18T06:56:55.477Z,97799.21
2018-01-18T06:59:23.072Z,97763.54
2018-01-18T07:01:50.628Z,97767.99
2018-01-18T07:04:18.139Z,97752.92
2018-01-18T07:06:45.672Z,97752.78
2018-01-18T07:09:13.193Z,97743.66
2018-01-18T07:11:40.741Z,97726.45
2018-01-18T07:14:08.336Z,97708.48
2018-01-18T07:16:35.878Z,97717.05
2018-01-18T07:19:03.434Z,97725.20
2018-01-18T07:21:31.079Z,97697.49
2018-01-18T07:23:58.630Z,97682.69
2018-01-18T07:26:26.173Z,97678.48
2018-01-18T07:28:53.748Z,97658.65
2018-01-18T07:31:21.308Z,97658.27
2018-01-18T07:33:48.849Z,97646.51
2018-01-18T07:36:16.417Z,97633.52
2018-01-18T07:38:43.964Z,97625.45
2018-01-18T07:41:11.536Z,97641.56
2018-01-18T07:43:39.160Z,97638.36
2018-01-18T07:46:06.851Z,97637.78
2018-01-18T07:48:34.372Z,97637.17
2018-01-18T07:51:01.892Z,97641.43
2018-01-18T07:53:29.427Z,97655.22
2018-01-18T07:55:56.932Z,97651.09
2018-01-18T07:58:24.603Z,97644.57
2018-01-18T08:00:52.140Z,97617.47
2018-01-18T08:03:25.289Z,97613.33
2018-01-18T08:05:52.892Z,97633.70
2018-01-18T08:08:20.473Z,97626.84
2018-01-18T08:10:47.989Z,97602.54
2018-01-18T08:13:15.871Z,97605.88
2018-01-18T08:15:43.386Z,97597.88
2018-01-18T08:18:11.825Z,97580.19
2018-01-18T08:20:39.379Z,97603.83
2018-01-18T08:23:06.917Z,97599.58
2018-01-18T08:28:16.357Z,97576.13
2018-01-18T08:30:43.929Z,97582.60
2018-01-18T08:33:11.439Z,97554.13
2018-01-18T08:35:39.010Z,97564.86
2018-01-18T08:38:06.526Z,97551.98
2018-01-18T08:40:34.070Z,97573.09
2018-01-18T08:43:01.665Z,97540.31
2018-01-18T08:45:29.237Z,97573.75
2018-01-18T08:47:56.784Z,97522.27
2018-01-18T08:50:24.409Z,97560.66
2018-01-18T08:52:52.003Z,97585.48
2018-01-18T08:55:19.525Z,97561.09
2018-01-18T08:57:47.109Z,97555.06
2018-01-18T09:00:14.664Z,97563.81
2018-01-18T09:02:42.201Z,97543.05
2018-01-18T09:05:09.873Z,97566.30
2018-01-18T09:07:37.456Z,97539.35
2018-01-18T09:10:04.974Z,97518.31
2018-01-18T09:12:32.512Z,97546.63
2018-01-18T09:15:00.408Z,97546.17
2018-01-18T09:17:28.138Z,97520.45
2018-01-18T09:19:55.722Z,97521.75
2018-01-18T09:22:23.353Z,97550.20
2018-01-18T09:24:50.892Z,97507.18
2018-01-18T09:27:18.427Z,97448.07
2018-01-18T09:29:45.961Z,97507.78
2018-01-18T09:32:13.683Z,97502.21
2018-01-18T09:34:41.364Z,97455.69
2018-01-18T09:37:08.906Z,97503.80
2018-01-18T09:39:36.484Z,97463.27
2018-01-18T09:42:04.021Z,97436.75
2018-01-18T09:44:31.596Z,97468.20
2018-01-18T09:46:59.128Z,97460.54
2018-01-18T09:49:26.702Z,97479.63
2018-01-18T09:51:54.346Z,97431.44
2018-01-18T09:54:21.949Z,97472.05
2018-01-18T09:56:49.521Z,97478.67
2018-01-18T09:59:17.380Z,97455.50
2018-01-18T10:01:44.977Z,97430.77
2018-01-18T10:04:12.473Z,97450.53
2018-01-18T10:06:40.098Z,97417.35
2018-01-18T10:09:07.621Z,97449.93
2018-01-18T10:11:35.119Z,97439.22
2018-01-18T10:14:02.677Z,97402.66
2018-01-18T10:16:30.220Z,97423.05
2018-01-18T10:18:57.762Z,97420.80
2018-01-18T10:21:25.325Z,97395.20
2018-01-18T10:23:52.842Z,97422.18
2018-01-18T10:26:20.373Z,97418.22
2018-01-18T10:28:47.920Z,97386.85
2018-01-18T10:31:15.480Z,97402.77
2018-01-18T10:33:43.080Z,97377.89
2018-01-18T10:36:10.712Z,97398.52
2018-01-18T10:38:38.281Z,97370.53
2018-01-18T10:41:05.826Z,97388.56
2018-01-18T10:43:33.396Z,97415.41
2018-01-18T10:46:00.936Z,97434.53
2018-01-18T10:48:28.480Z,97434.73
2018-01-18T10:50:56.035Z,97437.64
2018-01-18T10:53:23.598Z,97481.68
2018-01-18T10:55:51.116Z,97489.05
2018-01-18T10:58:18.688Z,97494.86
2018-01-18T11:00:46.288Z,97520.73
2018-01-18T11:03:13.801Z,97581.94
2018-01-18T11:05:41.331Z,97630.13
2018-01-18T11:08:08.866Z,97701.63
2018-01-18T11:10:36.418Z,97728.06
2018-01-18T11:13:03.985Z,97692.21
2018-01-18T11:15:31.497Z,97862.42
2018-01-18T11:17:59.053Z,97918.55
2018-01-18T11:20:26.664Z,97927.45
2018-01-18T11:22:54.613Z,97931.33
2018-01-18T11:25:22.134Z,97910.64
2018-01-18T11:27:49.720Z,98007.05
2018-01-18T11:30:17.256Z,98103.21
2018-01-18T11:32:44.959Z,98057.64
2018-01-18T11:35:12.472Z,98074.76
2018-01-18T11:37:40.025Z,98078.41
2018-01-18T11:40:07.563Z,98160.87
2018-01-18T11:42:35.161Z,98180.53
2018-01-18T11:45:02.728Z,98247.32
2018-01-18T11:47:30.241Z,98236.92
2018-01-18T11:49:57.774Z,98283.13
2018-01-18T11:52:25.340Z,98338.53
2018-01-18T11:54:52.883Z,98331.78
2018-01-18T11:57:20.399Z,98365.38
2018-01-18T11:59:47.937Z,98367.27
2018-01-18T12:02:15.444Z,98391.48
2018-01-18T12:04:43.026Z,98414.26
2018-01-18T12:07:10.588Z,98440.83
2018-01-18T12:09:38.234Z,98443.48
2018-01-18T12:12:06.236Z,98452.55
2018-01-18T12:14:33.763Z,98468.73
2018-01-18T12:17:01.286Z,98510.49
2018-01-18T12:19:28.844Z,98516.35
2018-01-18T12:21:56.386Z,98554.10
2018-01-18T12:24:24.001Z,98556.92
2018-01-18T12:26:51.536Z,98584.06
2018-01-18T12:29:19.138Z,98595.76
2018-01-18T12:31:46.985Z,98616.70
2018-01-18T12:34:14.487Z,98659.52
2018-01-18T12:36:42.026Z,98664.27
2018-01-18T12:39:09.575Z,98667.33
2018-01-18T12:41:37.080Z,98725.41
2018-01-18T12:44:05.090Z,98721.13
2018-01-18T12:46:32.611Z,98725.55
2018-01-18T12:49:00.234Z,98735.92
2018-01-18T12:51:27.833Z,98752.67
2018-01-18T12:53:55.352Z,98742.02
2018-01-18T12:56:22.881Z,98769.72
2018-01-18T12:58:50.472Z,98777.19
2018-01-18T13:01:18.008Z,98799.83
2018-01-18T13:03:45.537Z,98794.83
2018-01-18T13:06:13.124Z,98805.47
2018-01-18T13:08:40.718Z,98851.64
2018-01-18T13:11:08.256Z,98763.80
2018-01-18T13:13:35.849Z,98861.12
2018-01-18T13:16:03.784Z,98860.31
2018-01-18T13:18:31.424Z,98868.45
2018-01-18T13:20:58.950Z,98857.85
2018-01-18T13:23:26.513Z,98886.05
2018-01-18T13:25:54.389Z,98897.19
2018-01-18T13:28:21.926Z,98902.88
2018-01-18T13:30:49.469Z,98899.25
2018-01-18T13:33:17.014Z,98905.72
2018-01-18T13:35:44.596Z,98927.37
2018-01-18T13:38:12.219Z,98930.56
2018-01-18T13:40:39.732Z,98943.86
2018-01-18T13:43:07.273Z,98946.16
2018-01-18T13:45:34.810Z,98948.89
2018-01-18T13:48:02.319Z,98958.77
2018-01-18T13:50:29.886Z,98976.91
2018-01-18T13:52:57.421Z,98987.44
2018-01-18T13:55:24.973Z,98982.67
2018-01-18T13:57:52.556Z,98992.19
2018-01-18T14:00:20.083Z,99001.47
2018-01-18T14:02:47.624Z,99008.59
2018-01-18T14:05:15.188Z,99026.16
2018-01-18T14:07:42.701Z,99026.13
2018-01-18T14:10:10.241Z,99034.91
2018-01-18T14:12:38.186Z,99048.87
2018-01-18T14:15:05.733Z,99044.56
2018-01-18T14:17:33.280Z,99050.95
2018-01-18T14:20:00.825Z,99055.70
2018-01-18T14:22:28.390Z,99049.06
2018-01-18T14:24:55.907Z,99054.38
2018-01-18T14:27:23.440Z,99063.63
2018-01-18T14:29:51.009Z,99066.41
2018-01-18T14:32:18.549Z,99079.70
2018-01-18T14:34:46.084Z,99080.61
2018-01-18T14:37:13.583Z,99089.87
2018-01-18T14:39:41.113Z,99091.16
2018-01-18T14:42:08.684Z,99097.02
2018-01-18T14:44:36.193Z,99106.00
2018-01-18T14:47:03.859Z,99112.97
2018-01-18T14:49:31.376Z,99106.69
2018-01-18T14:51:58.905Z,99119.52
2018-01-18T14:54:26.464Z,99132.13
2018-01-18T14:56:54.057Z,99131.09
2018-01-18T14:59:21.566Z,99141.47
2018-01-18T15:01:49.282Z,99146.06
2018-01-18T15:04:16.820Z,99152.35
2018-01-18T15:06:44.414Z,99155.86
2018-01-18T15:09:12.119Z,99167.11
2018-01-18T15:11:39.773Z,99178.13
2018-01-18T15:14:07.304Z,99176.36
2018-01-18T15:16:34.930Z,99191.70
2018-01-18T15:19:02.829Z,99187.56
2018-01-18T15:21:30.342Z,99201.17
2018-01-18T15:23:57.981Z,99201.70
2018-01-18T15:26:25.503Z,99211.41
2018-01-18T15:28:53.060Z,99206.36
2018-01-18T15:31:20.597Z,99210.58
2018-01-18T15:33:48.107Z,99213.28
2018-01-18T15:36:15.659Z,99216.06
2018-01-18T15:38:43.170Z,99218.70
2018-01-18T15:41:10.732Z,99219.29
2018-01-18T15:43:38.249Z,99227.83
2018-01-18T15:46:05.805Z,99236.62
2018-01-18T15:48:33.395Z,99227.59
2018-01-18T15:51:00.937Z,99235.41
2018-01-18T15:53:28.641Z,99240.17
2018-01-18T15:55:56.306Z,99248.05
2018-01-18T15:58:23.815Z,99257.02
2018-01-18T16:00:51.373Z,99254.98
2018-01-18T16:03:18.871Z,99269.30
2018-01-18T16:05:46.465Z,99273.53
2018-01-18T16:08:14.181Z,99274.95
2018-01-18T16:10:41.697Z,99279.16
2018-01-18T16:13:09.236Z,99287.55
2018-01-18T16:15:36.773Z,99294.45
2018-01-18T16:18:04.308Z,99297.06
2018-01-18T16:20:31.917Z,99299.41
2018-01-18T16:22:59.515Z,99303.87
2018-01-18T16:25:27.049Z,99307.36
2018-01-18T16:27:54.601Z,99298.03
2018-01-18T16:30:22.140Z,99313.38
2018-01-18T16:32:49.701Z,99312.06
2018-01-18T16:35:17.232Z,99315.75
2018-01-18T16:37:44.754Z,99316.64
2018-01-18T16:40:12.417Z,99332.02
2018-01-18T16:42:39.988Z,99326.23
2018-01-18T16:45:07.672Z,99335.02
2018-01-18T16:47:35.266Z,99324.45
2018-01-18T16:50:02.813Z,99336.30
2018-01-18T16:52:30.324Z,99332.92
2018-01-18T16:54:57.975Z,99337.50
2018-01-18T16:57:25.546Z,99340.70
2018-01-18T16:59:53.169Z,99346.85
2018-01-18T17:02:20.823Z,99349.05
2018-01-18T17:04:48.367Z,99338.52
2018-01-18T17:07:15.894Z,99347.06
2018-01-18T17:09:43.723Z,99349.78
2018-01-18T17:12:11.297Z,99346.09
2018-01-18T17:14:38.844Z,99353.86
2018-01-18T17:17:06.439Z,99357.01
2018-01-18T17:19:33.989Z,99357.73
2018-01-18T17:22:01.532Z,99358.22
2018-01-18T17:24:29.464Z,99355.50
2018-01-18T17:26:57.013Z,99350.39
2018-01-18T17:29:24.559Z,99349.23
2018-01-18T17:31:52.204Z,99351.88
2018-01-18T17:34:19.752Z,99357.80
2018-01-18T17:36:47.293Z,99351.11
2018-01-18T17:39:14.898Z,99365.30
2018-01-18T17:41:42.673Z,99368.34
2018-01-18T17:44:10.207Z,99377.16
2018-01-18T17:46:38.127Z,99377.55
2018-01-18T17:49:06.084Z,99382.11
2018-01-18T17:51:33.682Z,99382.09
2018-01-18T17:54:01.219Z,99392.11
2018-01-18T17:56:28.757Z,99383.78
2018-01-18T17:58:56.504Z,99384.22
2018-01-18T18:01:24.049Z,99384.31
2018-01-18T18:03:51.585Z,99377.02
2018-01-18T18:06:19.235Z,99383.87
2018-01-18T18:08:46.780Z,99381.03
2018-01-18T18:11:14.325Z,99390.73
2018-01-18T18:13:41.861Z,99389.66
2018-01-18T18:16:09.364Z,99397.97
2018-01-18T18:18:36.920Z,99395.48
2018-01-18T18:21:04.456Z,99400.46
2018-01-18T18:23:32.031Z,99402.85
2018-01-18T18:25:59.587Z,99404.69
2018-01-18T18:28:27.143Z,99409.94
2018-01-18T18:30:54.730Z,99405.12
2018-01-18T18:33:22.271Z,99410.48
2018-01-18T18:35:50.157Z,99418.75
2018-01-18T18:38:17.677Z,99413.77
2018-01-18T18:40:45.205Z,99415.44
2018-01-18T18:43:12.825Z,99415.74
2018-01-18T18:45:40.364Z,99418.77
2018-01-18T18:48:07.947Z,99421.49
2018-01-18T18:50:35.569Z,99426.47
2018-01-18T18:53:03.100Z,99419.93
2018-01-18T18:55:30.648Z,99422.57
2018-01-18T18:57:58.168Z,99427.78
2018-01-18T19:00:25.765Z,99425.34
2018-01-18T19:02:54.349Z,99424.90
2018-01-18T19:05:22.293Z,99431.22
2018-01-18T19:07:49.854Z,99444.55
2018-01-18T19:10:17.396Z,99444.94
2018-01-18T19:12:45.232Z,99445.98
2018-01-18T19:15:12.788Z,99444.70
2018-01-18T19:17:40.313Z,99442.98
2018-01-18T19:20:07.886Z,99448.63
2018-01-18T19:22:35.433Z,99456.87
2018-01-18T19:25:03.150Z,99462.25
2018-01-18T19:27:30.863Z,99466.30
2018-01-18T19:29:58.415Z,99466.81
2018-01-18T19:32:25.971Z,99469.80
2018-01-18T19:34:53.561Z,99460.92
2018-01-18T19:37:21.181Z,99467.34
2018-01-18T19:39:48.724Z,99476.63
2018-01-18T19:42:16.276Z,99470.35
2018-01-18T19:44:43.852Z,99472.03
2018-01-18T19:47:11.373Z,99473.87
2018-01-18T19:49:38.957Z,99478.43
2018-01-18T19:52:06.522Z,99474.09
2018-01-18T19:54:34.132Z,99479.34
2018-01-18T19:57:01.694Z,99474.34
2018-01-18T19:59:29.317Z,99480.63
2018-01-18T20:01:56.928Z,99468.58
2018-01-18T20:04:24.515Z,99478.23
2018-01-18T20:06:52.146Z,99470.39
2018-01-18T20:09:19.749Z,99479.00
2018-01-18T20:11:47.395Z,99483.53
2018-01-18T20:14:14.944Z,99480.02
2018-01-18T20:16:42.512Z,99472.17
2018-01-18T20:19:10.074Z,99470.70
2018-01-18T20:21:37.628Z,99465.80
2018-01-18T20:24:05.184Z,99462.16
2018-01-18T20:26:32.788Z,99466.84
2018-01-18T20:29:00.335Z,99466.36
2018-01-18T20:31:27.883Z,99469.22
2018-01-18T20:33:55.492Z,99474.25
2018-01-18T20:36:23.044Z,99477.58
2018-01-18T20:38:50.600Z,99473.36
2018-01-18T20:41:18.113Z,99478.58
2018-01-18T20:43:45.680Z,99481.95
2018-01-18T20:46:13.196Z,99486.41
2018-01-18T20:48:40.865Z,99484.04
2018-01-18T20:51:08.399Z,99487.04
2018-01-18T20:53:35.931Z,99496.80
2018-01-18T20:56:03.597Z,99498.22
2018-01-18T20:58:31.153Z,99508.47
2018-01-18T21:00:58.857Z,99511.55
2018-01-18T21:03:26.436Z,99515.33
2018-01-18T21:05:53.988Z,99512.69
2018-01-18T21:08:21.600Z,99514.52
2018-01-18T21:10:49.146Z,99514.64
2018-01-18T21:13:16.813Z,99515.09
2018-01-18T21:15:44.389Z,99520.24
2018-01-18T21:18:12.005Z,99521.55
2018-01-18T21:20:39.557Z,99525.75
2018-01-18T21:23:07.132Z,99524.55
2018-01-18T21:25:34.730Z,99524.78
2018-01-18T21:28:02.343Z,99520.11
2018-01-18T21:30:29.901Z,99523.80
2018-01-18T21:32:57.542Z,99520.81
2018-01-18T21:35:25.088Z,99524.19
2018-01-18T21:37:52.638Z,99527.31
2018-01-18T21:40:20.326Z,99525.62
2018-01-18T21:42:47.857Z,99524.81
2018-01-18T21:45:15.386Z,99532.29
2018-01-18T21:47:42.997Z,99534.86
2018-01-18T21:50:10.549Z,99536.13
2018-01-18T21:52:38.104Z,99540.41
2018-01-18T21:55:05.676Z,99541.31
2018-01-18T21:57:33.192Z,99542.84
2018-01-18T22:00:00.736Z,99531.95
2018-01-18T22:02:28.354Z,99537.14
2018-01-18T22:04:55.905Z,99546.10
2018-01-18T22:07:23.438Z,99536.67
2018-01-18T22:09:51.049Z,99540.16
2018-01-18T22:12:18.592Z,99543.37
2018-01-18T22:14:46.110Z,99540.59
2018-01-18T22:17:13.656Z,99546.98
2018-01-18T22:19:41.292Z,99551.28
2018-01-18T22:22:08.857Z,99551.41
2018-01-18T22:24:36.409Z,99553.08
2018-01-18T22:27:03.957Z,99554.73
2018-01-18T22:29:31.534Z,99548.69
2018-01-18T22:31:59.052Z,99553.22
2018-01-18T22:34:26.736Z,99548.39
2018-01-18T22:36:54.456Z,99555.34
2018-01-18T22:39:22.161Z,99555.34
2018-01-18T22:41:49.717Z,99550.69
2018-01-18T22:44:17.252Z,99549.23
2018-01-18T22:46:44.857Z,99543.37
2018-01-18T22:49:12.375Z,99547.03
2018-01-18T22:51:39.962Z,99547.53
2018-01-18T22:54:07.568Z,99546.06
2018-01-18T22:56:35.096Z,99549.69
2018-01-18T22:59:02.653Z,99556.05
2018-01-18T23:01:30.172Z,99553.77
2018-01-18T23:03:57.777Z,99560.45
2018-01-18T23:06:25.349Z,99560.45
2018-01-18T23:08:52.892Z,99559.63
2018-01-18T23:11:20.472Z,99560.48
2018-01-18T23:13:48.029Z,99560.48
2018-01-18T23:16:15.600Z,99563.29
2018-01-18T23:18:43.182Z,99563.73
2018-01-18T23:21:10.746Z,99559.77
2018-01-18T23:23:38.357Z,99560.03
2018-01-18T23:26:05.889Z,99563.28
2018-01-18T23:28:33.446Z,99556.45
2018-01-18T23:31:01.030Z,99557.73
2018-01-18T23:33:28.685Z,99557.48
2018-01-18T23:35:56.289Z,99566.84
2018-01-18T23:38:23.872Z,99557.08
2018-01-18T23:40:51.460Z,99568.10
2018-01-18T23:43:19.068Z,99564.77
2018-01-18T23:45:46.620Z,99573.34
2018-01-18T23:48:14.174Z,99575.72
2018-01-18T23:50:41.759Z,99577.71
2018-01-18T23:53:09.381Z,99581.88
2018-01-18T23:55:36.970Z,99577.78
2018-01-18T23:58:04.579Z,99578.05
